createdAt,value
2018-11-02T00:02:04.585Z,6.60
2018-11-02T00:04:32.769Z,6.60
2018-11-02T00:07:02.953Z,6.70
2018-11-02T00:09:31.733Z,6.90
2018-11-02T00:12:05.805Z,7.10
2018-11-02T00:14:33.946Z,7.40
2018-11-02T00:17:04.960Z,7.80
2018-11-02T00:19:34.097Z,7.60
2018-11-02T00:22:04.418Z,7.50
2018-11-02T00:24:32.641Z,7.90
2018-11-02T00:27:05.482Z,8.40
2018-11-02T00:29:33.655Z,8.70
2018-11-02T00:32:03.863Z,8.80
2018-11-02T00:34:31.906Z,8.90
2018-11-02T00:37:00.388Z,8.90
2018-11-02T00:39:28.539Z,9.00
2018-11-02T00:41:56.680Z,9.00
2018-11-02T00:44:24.869Z,9.10
2018-11-02T00:46:53.013Z,9.10
2018-11-02T00:49:21.156Z,9.10
2018-11-02T00:51:49.338Z,9.10
2018-11-02T00:54:17.764Z,9.10
2018-11-02T00:56:45.930Z,9.00
2018-11-02T00:59:14.182Z,9.00
2018-11-02T01:01:42.477Z,9.00
2018-11-02T01:04:10.625Z,9.10
2018-11-02T01:06:38.912Z,9.00
2018-11-02T01:09:09.821Z,8.90
2018-11-02T01:11:37.994Z,9.00
2018-11-02T01:14:06.405Z,9.00
2018-11-02T01:16:34.578Z,9.00
2018-11-02T01:19:06.973Z,9.00
2018-11-02T01:21:35.813Z,9.10
2018-11-02T01:24:07.761Z,9.20
2018-11-02T01:26:35.948Z,9.20
2018-11-02T01:29:04.805Z,9.20
2018-11-02T01:31:32.949Z,9.20
2018-11-02T01:34:03.948Z,9.30
2018-11-02T01:36:32.095Z,9.40
2018-11-02T01:39:00.250Z,9.50
2018-11-02T01:41:28.415Z,9.60
2018-11-02T01:43:56.552Z,9.70
2018-11-02T01:46:24.750Z,9.50
2018-11-02T01:48:53.395Z,9.50
2018-11-02T01:51:21.620Z,9.60
2018-11-02T01:53:49.781Z,9.70
2018-11-02T01:56:18.261Z,9.50
2018-11-02T01:58:47.678Z,9.50
2018-11-02T02:01:15.881Z,9.50
2018-11-02T02:03:44.133Z,9.50
2018-11-02T02:06:12.563Z,9.50
2018-11-02T02:08:40.761Z,9.50
2018-11-02T02:11:09.217Z,9.60
2018-11-02T02:13:37.401Z,9.60
2018-11-02T02:16:07.734Z,9.60
2018-11-02T02:18:35.935Z,9.50
2018-11-02T02:21:06.496Z,9.40
2018-11-02T02:23:34.685Z,9.40
2018-11-02T02:26:07.827Z,9.40
2018-11-02T02:28:36.049Z,9.40
2018-11-02T02:31:05.689Z,9.30
2018-11-02T02:33:33.843Z,9.20
2018-11-02T02:36:03.804Z,9.10
2018-11-02T02:38:31.906Z,9.10
2018-11-02T02:41:00.300Z,9.10
2018-11-02T02:43:28.940Z,9.00
2018-11-02T02:45:57.138Z,8.90
2018-11-02T02:48:25.293Z,8.90
2018-11-02T02:50:53.460Z,8.90
2018-11-02T02:53:21.640Z,8.90
2018-11-02T02:55:49.834Z,8.80
2018-11-02T02:58:18.013Z,8.70
2018-11-02T03:00:46.168Z,8.70
2018-11-02T03:03:14.325Z,8.70
2018-11-02T03:05:42.532Z,8.70
2018-11-02T03:08:10.661Z,8.70
2018-11-02T03:10:39.693Z,8.70
2018-11-02T03:13:07.696Z,8.70
2018-11-02T03:15:35.876Z,8.70
2018-11-02T03:18:07.824Z,8.70
2018-11-02T03:20:35.975Z,8.70
2018-11-02T03:23:06.633Z,8.70
2018-11-02T03:25:34.761Z,8.60
2018-11-02T03:28:05.108Z,8.50
2018-11-02T03:30:33.253Z,8.40
2018-11-02T03:33:02.805Z,8.30
2018-11-02T03:35:31.602Z,8.30
2018-11-02T03:37:59.770Z,8.40
2018-11-02T03:40:27.938Z,8.30
2018-11-02T03:42:57.169Z,8.10
2018-11-02T03:45:26.018Z,7.80
2018-11-02T03:47:54.289Z,7.50
2018-11-02T03:50:22.432Z,7.40
2018-11-02T03:52:51.232Z,7.30
2018-11-02T03:55:19.372Z,7.60
2018-11-02T03:57:47.532Z,7.90
2018-11-02T04:00:15.721Z,8.00
2018-11-02T04:02:43.986Z,7.90
2018-11-02T04:05:12.107Z,7.70
2018-11-02T04:07:40.229Z,7.60
2018-11-02T04:10:09.641Z,7.60
2018-11-02T04:12:37.813Z,7.60
2018-11-02T04:15:05.962Z,7.70
2018-11-02T04:17:34.145Z,7.80
2018-11-02T04:20:04.884Z,7.80
2018-11-02T04:22:33.498Z,8.00
2018-11-02T04:25:04.756Z,8.00
2018-11-02T04:27:32.908Z,8.10
2018-11-02T04:30:05.993Z,8.00
2018-11-02T04:32:34.145Z,8.10
2018-11-02T04:35:04.362Z,8.30
2018-11-02T04:37:32.616Z,8.40
2018-11-02T04:40:00.778Z,8.40
2018-11-02T04:42:28.951Z,8.30
2018-11-02T04:44:57.089Z,8.30
2018-11-02T04:47:25.856Z,8.30
2018-11-02T04:49:54.006Z,8.30
2018-11-02T04:52:22.171Z,8.30
2018-11-02T04:54:50.354Z,8.30
2018-11-02T04:57:18.497Z,8.30
2018-11-02T04:59:47.658Z,8.30
2018-11-02T05:02:15.828Z,8.40
2018-11-02T05:04:44.006Z,8.50
2018-11-02T05:07:12.220Z,8.60
2018-11-02T05:09:40.531Z,8.50
2018-11-02T05:12:08.721Z,8.60
2018-11-02T05:14:36.892Z,8.60
2018-11-02T05:17:05.800Z,8.60
2018-11-02T05:19:33.945Z,8.70
2018-11-02T05:22:07.521Z,8.80
2018-11-02T05:24:35.696Z,8.80
2018-11-02T05:27:04.937Z,8.90
2018-11-02T05:29:34.120Z,8.90
2018-11-02T05:32:04.201Z,8.90
2018-11-02T05:34:32.609Z,8.90
2018-11-02T05:37:04.673Z,8.90
2018-11-02T05:39:32.910Z,8.90
2018-11-02T05:42:04.598Z,8.90
2018-11-02T05:44:32.796Z,9.00
2018-11-02T05:47:03.787Z,9.00
2018-11-02T05:49:31.889Z,9.00
2018-11-02T05:52:00.175Z,9.00
2018-11-02T05:54:28.326Z,8.90
2018-11-02T05:56:56.508Z,8.90
2018-11-02T05:59:24.733Z,8.90
2018-11-02T06:01:52.872Z,8.80
2018-11-02T06:04:22.100Z,8.70
2018-11-02T06:06:50.870Z,8.70
2018-11-02T06:09:19.023Z,8.60
2018-11-02T06:11:47.297Z,8.60
2018-11-02T06:14:15.500Z,8.60
2018-11-02T06:16:44.543Z,8.50
2018-11-02T06:19:12.703Z,8.40
2018-11-02T06:21:40.834Z,8.20
2018-11-02T06:24:09.046Z,8.20
2018-11-02T06:26:37.202Z,8.20
2018-11-02T06:29:07.464Z,8.10
2018-11-02T06:31:35.683Z,8.00
2018-11-02T06:34:05.186Z,7.90
2018-11-02T06:36:33.387Z,7.90
2018-11-02T06:39:05.501Z,7.80
2018-11-02T06:41:33.676Z,7.70
2018-11-02T06:44:04.564Z,7.70
2018-11-02T06:46:32.708Z,7.80
2018-11-02T06:49:03.725Z,7.90
2018-11-02T06:51:31.905Z,8.00
2018-11-02T06:54:00.637Z,8.00
2018-11-02T06:56:28.837Z,8.10
2018-11-02T06:58:57.158Z,8.60
2018-11-02T07:01:26.100Z,9.30
2018-11-02T07:03:54.281Z,10.10
2018-11-02T07:06:22.458Z,10.80
2018-11-02T07:08:50.580Z,11.30
2018-11-02T07:11:18.747Z,11.80
2018-11-02T07:13:46.917Z,12.30
2018-11-02T07:16:15.096Z,12.80
2018-11-02T07:18:43.309Z,13.40
2018-11-02T07:21:11.493Z,13.70
2018-11-02T07:23:39.641Z,14.20
2018-11-02T07:26:07.831Z,14.80
2018-11-02T07:28:36.008Z,15.40
2018-11-02T07:31:05.070Z,15.60
2018-11-02T07:33:33.261Z,16.00
2018-11-02T07:36:01.995Z,16.20
2018-11-02T07:38:30.164Z,16.30
2018-11-02T07:40:58.317Z,16.40
2018-11-02T07:43:26.500Z,16.70
2018-11-02T07:45:54.680Z,17.00
2018-11-02T07:48:22.887Z,17.50
2018-11-02T07:50:51.063Z,18.20
2018-11-02T07:53:19.221Z,18.60
2018-11-02T07:55:47.406Z,19.10
2018-11-02T07:58:15.907Z,18.90
2018-11-02T08:00:44.017Z,18.70
2018-11-02T08:03:12.189Z,18.70
2018-11-02T08:05:40.385Z,18.40
2018-11-02T08:08:08.532Z,18.70
2018-11-02T08:10:37.263Z,18.50
2018-11-02T08:13:06.836Z,17.80
2018-11-02T08:15:35.005Z,17.90
2018-11-02T08:18:05.075Z,17.90
2018-11-02T08:20:33.523Z,18.10
2018-11-02T08:23:04.265Z,18.50
2018-11-02T08:25:32.424Z,19.30
2018-11-02T08:28:00.593Z,19.70
2018-11-02T08:30:28.840Z,20.30
2018-11-02T08:32:57.057Z,20.70
2018-11-02T08:35:26.304Z,21.20
2018-11-02T08:37:54.433Z,21.30
2018-11-02T08:40:22.625Z,22.10
2018-11-02T08:42:50.845Z,22.50
2018-11-02T08:45:19.901Z,23.10
2018-11-02T08:47:48.133Z,23.70
2018-11-02T08:50:16.306Z,24.00
2018-11-02T08:52:44.457Z,23.70
2018-11-02T08:55:13.133Z,23.80
2018-11-02T08:57:41.323Z,23.70
2018-11-02T09:00:11.090Z,23.90
2018-11-02T09:02:39.265Z,23.20
2018-11-02T09:05:07.756Z,22.70
2018-11-02T09:07:36.737Z,22.20
2018-11-02T09:10:06.728Z,22.30
2018-11-02T09:12:34.905Z,22.60
2018-11-02T09:15:07.608Z,22.50
2018-11-02T09:17:35.881Z,21.60
2018-11-02T09:20:05.091Z,20.90
2018-11-02T09:22:33.269Z,21.10
2018-11-02T09:25:02.045Z,22.00
2018-11-02T09:27:30.267Z,22.70
2018-11-02T09:29:58.390Z,22.80
2018-11-02T09:32:26.534Z,23.70
2018-11-02T09:34:54.695Z,23.90
2018-11-02T09:37:22.865Z,23.80
2018-11-02T09:39:51.061Z,24.20
2018-11-02T09:42:19.247Z,24.30
2018-11-02T09:44:47.341Z,23.10
2018-11-02T09:47:15.516Z,22.40
2018-11-02T09:49:43.702Z,20.30
2018-11-02T09:52:12.040Z,18.00
2018-11-02T09:54:40.045Z,17.50
2018-11-02T09:57:08.185Z,16.50
2018-11-02T09:59:36.341Z,15.50
2018-11-02T10:02:08.711Z,14.60
2018-11-02T10:04:36.729Z,13.60
2018-11-02T10:07:05.744Z,13.20
2018-11-02T10:09:34.333Z,13.00
2018-11-02T10:12:04.673Z,13.20
2018-11-02T10:14:32.828Z,13.30
2018-11-02T10:17:05.653Z,13.10
2018-11-02T10:19:34.230Z,12.70
2018-11-02T10:22:05.397Z,12.70
2018-11-02T10:24:33.616Z,12.90
2018-11-02T10:27:02.778Z,13.60
2018-11-02T10:29:30.976Z,14.40
2018-11-02T10:31:59.189Z,14.60
2018-11-02T10:34:27.399Z,14.20
2018-11-02T10:36:56.352Z,13.80
2018-11-02T10:39:24.562Z,13.90
2018-11-02T10:41:55.514Z,14.40
2018-11-02T10:44:26.152Z,14.60
2018-11-02T10:46:54.260Z,14.50
2018-11-02T10:49:22.461Z,14.40
2018-11-02T10:51:50.932Z,14.20
2018-11-02T10:54:19.116Z,14.00
2018-11-02T10:56:47.383Z,13.90
2018-11-02T10:59:15.401Z,13.90
2018-11-02T11:01:48.947Z,14.00
2018-11-02T11:04:17.148Z,14.30
2018-11-02T11:06:45.346Z,14.00
2018-11-02T11:09:13.820Z,13.90
2018-11-02T11:11:42.572Z,14.00
2018-11-02T11:14:10.968Z,14.20
2018-11-02T11:16:39.138Z,14.20
2018-11-02T11:19:08.250Z,14.30
2018-11-02T11:21:36.737Z,14.40
2018-11-02T11:24:07.072Z,14.60
2018-11-02T11:26:36.424Z,15.00
2018-11-02T11:29:05.302Z,15.30
2018-11-02T11:31:33.465Z,15.50
2018-11-02T11:34:02.794Z,15.50
2018-11-02T11:36:30.984Z,15.00
2018-11-02T11:38:59.168Z,14.30
2018-11-02T11:41:27.678Z,13.80
2018-11-02T11:43:55.894Z,13.40
2018-11-02T11:46:24.929Z,13.00
2018-11-02T11:48:53.148Z,13.00
2018-11-02T11:51:21.249Z,13.50
2018-11-02T11:53:49.457Z,13.80
2018-11-02T11:56:18.104Z,14.00
2018-11-02T11:58:46.581Z,14.00
2018-11-02T12:01:14.704Z,14.10
2018-11-02T12:03:42.904Z,14.10
2018-11-02T12:06:11.065Z,14.10
2018-11-02T12:08:39.214Z,14.00
2018-11-02T12:11:07.397Z,13.80
2018-11-02T12:13:35.588Z,13.60
2018-11-02T12:16:04.094Z,13.50
2018-11-02T12:18:32.192Z,13.50
2018-11-02T12:21:00.357Z,13.60
2018-11-02T12:23:28.603Z,13.80
2018-11-02T12:25:57.718Z,13.80
2018-11-02T12:28:25.931Z,13.80
2018-11-02T12:30:55.289Z,13.80
2018-11-02T12:33:23.425Z,13.90
2018-11-02T12:35:51.613Z,13.90
2018-11-02T12:38:19.812Z,13.90
2018-11-02T12:40:47.997Z,13.70
2018-11-02T12:43:16.211Z,13.80
2018-11-02T12:45:44.380Z,13.90
2018-11-02T12:48:12.845Z,14.00
2018-11-02T12:50:41.163Z,14.00
2018-11-02T12:53:09.309Z,13.80
2018-11-02T12:55:37.505Z,13.70
2018-11-02T12:58:06.913Z,13.60
2018-11-02T13:00:35.117Z,13.40
2018-11-02T13:03:05.117Z,13.40
2018-11-02T13:05:33.286Z,13.50
2018-11-02T13:08:01.889Z,13.50
2018-11-02T13:10:30.040Z,13.60
2018-11-02T13:12:58.224Z,13.60
2018-11-02T13:15:30.151Z,13.70
2018-11-02T13:17:58.387Z,13.80
2018-11-02T13:20:26.559Z,13.90
2018-11-02T13:22:54.713Z,14.10
2018-11-02T13:25:22.872Z,14.30
2018-11-02T13:27:51.993Z,14.40
2018-11-02T13:30:20.323Z,14.50
2018-11-02T13:32:48.388Z,14.40
2018-11-02T13:35:17.774Z,14.40
2018-11-02T13:37:46.459Z,14.40
2018-11-02T13:40:16.130Z,14.60
2018-11-02T13:42:44.455Z,14.70
2018-11-02T13:45:14.475Z,14.80
2018-11-02T13:47:43.178Z,15.00
2018-11-02T13:50:12.000Z,15.10
2018-11-02T13:52:40.519Z,15.00
2018-11-02T13:55:09.407Z,14.90
2018-11-02T13:57:37.800Z,14.80
2018-11-02T14:00:08.196Z,14.80
2018-11-02T14:02:36.172Z,14.60
2018-11-02T14:05:08.601Z,14.50
2018-11-02T14:07:36.782Z,14.30
2018-11-02T14:10:05.411Z,14.10
2018-11-02T14:12:35.115Z,14.00
2018-11-02T14:15:08.328Z,13.90
2018-11-02T14:17:36.450Z,13.90
2018-11-02T14:20:09.070Z,13.80
2018-11-02T14:22:37.386Z,13.70
2018-11-02T14:25:06.513Z,13.60
2018-11-02T14:27:34.722Z,13.60
2018-11-02T14:30:09.780Z,13.60
2018-11-02T14:32:38.328Z,13.50
2018-11-02T14:35:06.784Z,13.60
2018-11-02T14:37:35.101Z,14.00
2018-11-02T14:40:07.841Z,14.20
2018-11-02T14:42:36.509Z,14.20
2018-11-02T14:45:05.766Z,14.20
2018-11-02T14:47:33.912Z,14.00
2018-11-02T14:50:03.876Z,13.90
2018-11-02T14:52:32.072Z,13.60
2018-11-02T14:55:00.249Z,13.40
2018-11-02T14:57:28.396Z,13.30
2018-11-02T14:59:56.723Z,13.10
2018-11-02T15:02:25.673Z,13.00
2018-11-02T15:04:53.865Z,13.00
2018-11-02T15:07:22.061Z,13.10
2018-11-02T15:09:51.106Z,13.50
2018-11-02T15:12:19.777Z,13.70
2018-11-02T15:14:48.210Z,13.10
2018-11-02T15:17:16.408Z,12.50
2018-11-02T15:19:45.197Z,12.50
2018-11-02T15:22:13.763Z,12.50
2018-11-02T15:24:41.941Z,12.40
2018-11-02T15:27:10.129Z,12.20
2018-11-02T15:29:38.297Z,12.10
2018-11-02T15:32:06.553Z,12.00
2018-11-02T15:34:34.773Z,11.80
2018-11-02T15:37:04.030Z,11.80
2018-11-02T15:39:32.512Z,11.70
2018-11-02T15:42:02.881Z,11.60
2018-11-02T15:44:31.083Z,11.50
2018-11-02T15:46:59.300Z,11.40
2018-11-02T15:49:27.469Z,11.30
2018-11-02T15:51:56.502Z,11.30
2018-11-02T15:54:24.648Z,11.30
2018-11-02T15:56:52.808Z,11.20
2018-11-02T15:59:20.976Z,11.20
2018-11-02T16:01:49.133Z,11.10
2018-11-02T16:04:17.326Z,11.20
2018-11-02T16:06:45.868Z,11.10
2018-11-02T16:09:15.948Z,11.10
2018-11-02T16:11:45.097Z,11.10
2018-11-02T16:14:13.622Z,11.10
2018-11-02T16:16:41.993Z,11.00
2018-11-02T16:19:10.153Z,11.00
2018-11-02T16:21:39.080Z,11.00
2018-11-02T16:24:08.295Z,10.90
2018-11-02T16:26:37.297Z,10.90
2018-11-02T16:29:05.553Z,10.80
2018-11-02T16:31:33.754Z,10.80
2018-11-02T16:34:07.214Z,10.70
2018-11-02T16:36:35.376Z,10.70
2018-11-02T16:39:11.169Z,10.50
2018-11-02T16:41:40.025Z,10.50
2018-11-02T16:44:08.860Z,10.40
2018-11-02T16:46:36.894Z,10.20
2018-11-02T16:49:05.149Z,10.10
2018-11-02T16:51:33.357Z,9.90
2018-11-02T16:54:03.737Z,9.80
2018-11-02T16:56:32.864Z,9.70
2018-11-02T16:59:04.732Z,9.70
2018-11-02T17:01:32.901Z,9.70
2018-11-02T17:04:04.718Z,9.70
2018-11-02T17:06:32.892Z,9.70
2018-11-02T17:09:05.573Z,9.60
2018-11-02T17:11:33.809Z,9.60
2018-11-02T17:14:06.417Z,9.50
2018-11-02T17:16:34.591Z,9.40
2018-11-02T17:19:03.282Z,9.50
2018-11-02T17:21:31.709Z,9.50
2018-11-02T17:23:59.897Z,9.50
2018-11-02T17:26:28.129Z,9.40
2018-11-02T17:28:56.296Z,9.40
2018-11-02T17:31:24.458Z,9.40
2018-11-02T17:33:52.626Z,9.40
2018-11-02T17:36:20.785Z,9.30
2018-11-02T17:38:49.004Z,9.20
2018-11-02T17:41:17.188Z,9.20
2018-11-02T17:43:45.364Z,9.30
2018-11-02T17:46:13.495Z,9.30
2018-11-02T17:48:41.732Z,9.30
2018-11-02T17:51:09.950Z,9.20
2018-11-02T17:53:38.081Z,9.20
2018-11-02T17:56:06.601Z,9.20
2018-11-02T17:58:34.778Z,9.20
2018-11-02T18:01:04.927Z,9.10
2018-11-02T18:03:33.117Z,9.00
2018-11-02T18:06:02.946Z,8.90
2018-11-02T18:08:31.147Z,8.80
2018-11-02T18:10:59.240Z,8.90
2018-11-02T18:13:27.462Z,8.80
2018-11-02T18:15:55.614Z,8.70
2018-11-02T18:18:23.737Z,8.70
2018-11-02T18:20:51.937Z,8.60
2018-11-02T18:23:20.121Z,8.70
2018-11-02T18:25:48.284Z,8.70
2018-11-02T18:28:16.492Z,8.80
2018-11-02T18:30:44.718Z,8.70
2018-11-02T18:33:12.840Z,8.60
2018-11-02T18:35:41.191Z,8.50
2018-11-02T18:38:09.341Z,8.40
2018-11-02T18:40:37.481Z,8.30
2018-11-02T18:43:07.393Z,8.20
2018-11-02T18:45:35.554Z,8.20
2018-11-02T18:48:05.861Z,8.10
2018-11-02T18:50:33.941Z,8.10
2018-11-02T18:53:03.041Z,8.10
2018-11-02T18:55:31.756Z,8.00
2018-11-02T18:57:59.981Z,8.00
2018-11-02T19:00:28.076Z,8.00
2018-11-02T19:02:56.226Z,8.00
2018-11-02T19:05:24.433Z,7.90
2018-11-02T19:07:53.509Z,8.00
2018-11-02T19:10:21.686Z,8.00
2018-11-02T19:12:50.109Z,8.00
2018-11-02T19:15:19.253Z,7.90
2018-11-02T19:17:47.476Z,7.90
2018-11-02T19:20:16.090Z,7.90
2018-11-02T19:22:44.398Z,7.90
2018-11-02T19:25:13.704Z,7.90
2018-11-02T19:27:42.481Z,7.90
2018-11-02T19:30:11.993Z,7.80
2018-11-02T19:32:40.209Z,7.80
2018-11-02T19:35:08.863Z,7.80
2018-11-02T19:37:36.880Z,7.80
2018-11-02T19:40:06.914Z,7.80
2018-11-02T19:42:35.110Z,7.80
2018-11-02T19:45:07.461Z,7.70
2018-11-02T19:47:41.149Z,7.70
2018-11-02T19:50:11.217Z,7.70
2018-11-02T19:52:39.396Z,7.80
2018-11-02T19:55:08.803Z,7.80
2018-11-02T19:57:37.046Z,7.90
2018-11-02T20:00:06.965Z,7.80
2018-11-02T20:02:35.106Z,7.70
2018-11-02T20:05:09.360Z,7.70
2018-11-02T20:07:37.969Z,7.80
2018-11-02T20:10:08.271Z,7.80
2018-11-02T20:12:36.832Z,7.90
2018-11-02T20:15:06.232Z,7.90
2018-11-02T20:17:34.556Z,7.80
2018-11-02T20:20:04.697Z,7.90
2018-11-02T20:22:33.197Z,8.00
2018-11-02T20:25:04.749Z,8.10
2018-11-02T20:27:33.224Z,8.00
2018-11-02T20:30:02.121Z,8.00
2018-11-02T20:32:30.516Z,7.90
2018-11-02T20:34:58.636Z,7.80
2018-11-02T20:37:26.752Z,7.80
2018-11-02T20:39:54.957Z,7.90
2018-11-02T20:42:23.913Z,7.90
2018-11-02T20:44:52.101Z,7.90
2018-11-02T20:47:20.285Z,8.00
2018-11-02T20:49:48.502Z,7.90
2018-11-02T20:52:16.636Z,7.80
2018-11-02T20:54:44.778Z,7.80
2018-11-02T20:57:12.909Z,7.70
2018-11-02T20:59:41.119Z,7.80
2018-11-02T21:02:09.317Z,7.70
2018-11-02T21:04:37.497Z,7.60
2018-11-02T21:07:05.777Z,7.60
2018-11-02T21:09:34.490Z,7.60
2018-11-02T21:12:06.194Z,7.70
2018-11-02T21:14:34.628Z,7.80
2018-11-02T21:17:03.549Z,7.80
2018-11-02T21:19:31.664Z,7.80
2018-11-02T21:21:59.879Z,7.80
2018-11-02T21:24:28.265Z,7.80
2018-11-02T21:26:56.470Z,7.90
2018-11-02T21:29:24.644Z,7.90
2018-11-02T21:31:53.780Z,8.00
2018-11-02T21:34:21.913Z,8.00
2018-11-02T21:36:50.109Z,7.90
2018-11-02T21:39:18.266Z,8.00
2018-11-02T21:41:46.437Z,8.00
2018-11-02T21:44:14.589Z,8.00
2018-11-02T21:46:43.751Z,8.00
2018-11-02T21:49:11.892Z,8.00
2018-11-02T21:51:40.233Z,7.90
2018-11-02T21:54:09.370Z,7.90
2018-11-02T21:56:37.639Z,8.00
2018-11-02T21:59:09.600Z,8.00
2018-11-02T22:01:37.713Z,8.00
2018-11-02T22:04:08.676Z,8.10
2018-11-02T22:06:36.901Z,8.10
2018-11-02T22:09:08.241Z,8.10
2018-11-02T22:11:36.390Z,8.10
2018-11-02T22:14:05.199Z,8.10
2018-11-02T22:16:33.347Z,8.20
2018-11-02T22:19:05.877Z,8.20
2018-11-02T22:21:33.988Z,8.20
2018-11-02T22:24:03.743Z,8.20
2018-11-02T22:26:31.900Z,8.20
2018-11-02T22:29:00.106Z,8.20
2018-11-02T22:31:28.234Z,8.30
2018-11-02T22:33:56.405Z,8.30
2018-11-02T22:36:24.583Z,8.30
2018-11-02T22:38:54.604Z,8.40
2018-11-02T22:41:22.756Z,8.30
2018-11-02T22:43:50.920Z,8.30
2018-11-02T22:46:19.374Z,8.30
2018-11-02T22:48:47.518Z,8.30
2018-11-02T22:51:16.017Z,8.30
2018-11-02T22:53:44.190Z,8.30
2018-11-02T22:56:12.629Z,8.30
2018-11-02T22:58:44.697Z,8.30
2018-11-02T23:01:18.393Z,8.40
2018-11-02T23:03:46.572Z,8.30
2018-11-02T23:06:14.724Z,8.30
2018-11-02T23:08:45.396Z,8.30
2018-11-02T23:11:13.475Z,8.30
2018-11-02T23:13:41.710Z,8.20
2018-11-02T23:16:09.891Z,8.20
2018-11-02T23:18:38.587Z,8.20
2018-11-02T23:21:07.583Z,8.30
2018-11-02T23:23:35.760Z,8.30
2018-11-02T23:26:06.889Z,8.40
2018-11-02T23:28:35.030Z,8.30
2018-11-02T23:31:04.097Z,8.30
2018-11-02T23:33:32.301Z,8.30
2018-11-02T23:36:00.416Z,8.40
2018-11-02T23:38:28.588Z,8.50
2018-11-02T23:40:56.717Z,8.50
2018-11-02T23:43:24.941Z,8.40
2018-11-02T23:45:53.928Z,8.40
2018-11-02T23:48:22.116Z,8.40
2018-11-02T23:50:51.104Z,8.30
2018-11-02T23:53:19.513Z,8.20
2018-11-02T23:55:47.742Z,8.10
2018-11-02T23:58:16.824Z,8.10
